Time;durP1;ratioP1;P1;durP2;ratioP2;P2;SDS_P1;SDS_P2;PMS_P1;PMS_P2;Temp;Humidity;BMP_temperature;BMP_pressure;BME280_temperature;BME280_humidity;BME280_pressure;Samples;Min_cycle;Max_cycle;Signal;HPM_P1;HPM_P2
2023/08/30 00:00:38;;;;;;;4.93;1.80;;;15.70;99.90;;;;;;5025819;28;20045;-74
2023/08/30 00:03:24;;;;;;;3.13;1.85;;;15.70;99.90;;;;;;5031327;28;20773;-74
2023/08/30 00:06:10;;;;;;;4.53;1.77;;;15.60;99.90;;;;;;5041270;28;20048;-74
2023/08/30 00:08:57;;;;;;;5.18;1.70;;;15.60;99.90;;;;;;5019580;28;20646;-74
2023/08/30 00:11:43;;;;;;;2.45;1.60;;;15.50;99.90;;;;;;5026299;28;20127;-73
2023/08/30 00:14:29;;;;;;;4.32;1.63;;;15.50;99.90;;;;;;5030815;28;20769;-74
2023/08/30 00:17:15;;;;;;;4.38;2.47;;;15.40;99.90;;;;;;5039349;28;20114;-74
2023/08/30 00:20:02;;;;;;;4.47;1.80;;;15.40;99.90;;;;;;5034274;28;20041;-74
2023/08/30 00:22:48;;;;;;;4.80;1.90;;;15.30;99.90;;;;;;5035993;28;20037;-74
2023/08/30 00:25:34;;;;;;;2.90;1.67;;;15.30;99.90;;;;;;5028347;28;20120;-74
2023/08/30 00:28:20;;;;;;;4.22;1.70;;;15.20;99.90;;;;;;5046364;28;20083;-74
2023/08/30 00:31:06;;;;;;;3.78;2.17;;;15.20;99.90;;;;;;5046541;28;20750;-74
2023/08/30 00:33:52;;;;;;;3.80;2.05;;;15.20;99.90;;;;;;5034198;28;20133;-74
2023/08/30 00:36:38;;;;;;;3.03;1.92;;;15.20;99.90;;;;;;5036241;28;20136;-74
2023/08/30 00:39:24;;;;;;;4.07;2.00;;;15.20;99.90;;;;;;5049575;28;20520;-74
2023/08/30 00:42:10;;;;;;;3.88;1.90;;;15.20;99.90;;;;;;5021969;28;20060;-74
2023/08/30 00:44:56;;;;;;;3.47;2.00;;;15.10;99.90;;;;;;5039481;28;20135;-74
2023/08/30 00:47:42;;;;;;;3.88;2.20;;;15.10;99.90;;;;;;5037192;28;20497;-73
2023/08/30 00:50:28;;;;;;;3.45;1.80;;;15.10;99.90;;;;;;5019538;28;20071;-74
2023/08/30 00:53:14;;;;;;;3.95;1.83;;;15.10;99.90;;;;;;5036249;28;20519;-74
2023/08/30 00:56:00;;;;;;;2.92;1.60;;;15.00;99.90;;;;;;5039484;28;20139;-75
2023/08/30 00:58:47;;;;;;;4.35;1.90;;;15.00;99.90;;;;;;5032439;28;20076;-74
2023/08/30 01:01:33;;;;;;;5.65;1.60;;;15.00;99.90;;;;;;5020863;28;20041;-74
2023/08/30 01:04:19;;;;;;;4.35;2.03;;;15.00;99.90;;;;;;5037810;28;20037;-73
2023/08/30 01:07:05;;;;;;;5.10;2.25;;;14.90;99.90;;;;;;5032014;28;20454;-73
2023/08/30 01:09:51;;;;;;;3.75;2.20;;;14.90;99.90;;;;;;5009931;28;20076;-73
2023/08/30 01:12:52;;;;;;;4.50;2.83;;;14.80;99.90;;;;;;5024240;28;20123;-73
2023/08/30 01:15:39;;;;;;;6.35;2.63;;;14.80;99.90;;;;;;5027064;28;20076;-73
2023/08/30 01:18:31;;;;;;;4.65;2.88;;;14.70;99.90;;;;;;5011519;28;20053;-74
2023/08/30 01:21:40;;;;;;;5.60;2.90;;;14.70;99.90;;;;;;5027830;28;20045;-73
2023/08/30 01:24:49;;;;;;;5.60;2.63;;;14.70;99.90;;;;;;5034587;28;20069;-74
2023/08/30 01:27:36;;;;;;;5.45;2.53;;;14.70;99.90;;;;;;5037813;28;20365;-74
2023/08/30 01:30:22;;;;;;;5.72;3.22;;;14.60;99.90;;;;;;5021977;28;20045;-74
2023/08/30 01:33:08;;;;;;;4.72;3.40;;;14.50;99.90;;;;;;5035869;28;20051;-75
2023/08/30 01:35:55;;;;;;;5.60;3.25;;;14.50;99.90;;;;;;5029791;28;20120;-74
2023/08/30 01:38:41;;;;;;;5.88;3.22;;;14.40;99.90;;;;;;5029208;28;20050;-74
2023/08/30 01:41:27;;;;;;;5.93;3.83;;;14.40;99.90;;;;;;5021645;28;20046;-74
2023/08/30 01:44:16;;;;;;;8.43;4.30;;;14.40;99.90;;;;;;5026370;28;20071;-74
2023/08/30 01:47:02;;;;;;;5.82;3.90;;;14.40;99.90;;;;;;5009845;28;20397;-75
2023/08/30 01:49:48;;;;;;;5.90;3.90;;;14.40;99.90;;;;;;5021206;28;20076;-75
2023/08/30 01:52:34;;;;;;;6.80;3.97;;;14.40;99.90;;;;;;5018134;28;20065;-74
2023/08/30 01:55:20;;;;;;;5.55;3.88;;;14.30;99.90;;;;;;5038268;28;20069;-73
2023/08/30 01:58:07;;;;;;;5.55;3.50;;;14.30;99.90;;;;;;5009747;28;20088;-74
2023/08/30 02:00:53;;;;;;;5.28;3.72;;;14.30;99.90;;;;;;5032903;28;20037;-74
2023/08/30 02:03:39;;;;;;;7.32;3.67;;;14.20;99.90;;;;;;5036567;28;20036;-74
2023/08/30 02:06:45;;;;;;;5.80;3.90;;;14.20;99.90;;;;;;5036714;28;20041;-74
2023/08/30 02:09:51;;;;;;;5.30;3.50;;;14.20;99.90;;;;;;5036810;28;20036;-74
2023/08/30 02:12:53;;;;;;;4.57;3.60;;;14.20;99.90;;;;;;5038964;28;20399;-74
2023/08/30 02:15:39;;;;;;;7.53;3.53;;;14.10;99.90;;;;;;5034160;28;20087;-73
2023/08/30 02:18:25;;;;;;;4.82;3.50;;;14.10;99.90;;;;;;5025546;28;20060;-73
2023/08/30 02:21:11;;;;;;;6.28;3.40;;;14.00;99.90;;;;;;5012313;28;20059;-74
2023/08/30 02:23:57;;;;;;;4.47;3.60;;;13.90;99.90;;;;;;5043818;28;20090;-74
2023/08/30 02:26:43;;;;;;;5.57;3.83;;;13.90;99.90;;;;;;5048125;28;20367;-74
2023/08/30 02:29:29;;;;;;;7.18;4.63;;;13.80;99.90;;;;;;5014305;28;20659;-73
2023/08/30 02:32:20;;;;;;;7.93;4.15;;;13.80;99.90;;;;;;5037514;28;20374;-74
2023/08/30 02:35:06;;;;;;;6.75;4.03;;;13.80;99.90;;;;;;5022221;28;20501;-73
2023/08/30 02:37:52;;;;;;;5.10;3.47;;;13.80;99.90;;;;;;5041230;28;20469;-74
2023/08/30 02:40:38;;;;;;;7.15;4.43;;;13.80;99.90;;;;;;5024058;28;20053;-73
2023/08/30 02:43:24;;;;;;;5.78;3.50;;;13.70;99.90;;;;;;5031200;28;20040;-74
2023/08/30 02:46:10;;;;;;;6.35;3.92;;;13.70;99.90;;;;;;5030186;28;20764;-74
2023/08/30 02:48:56;;;;;;;7.35;4.32;;;13.60;99.90;;;;;;5033460;28;20037;-74
2023/08/30 02:51:42;;;;;;;5.57;4.25;;;13.60;99.90;;;;;;5045191;28;20487;-74
2023/08/30 02:54:28;;;;;;;6.20;4.35;;;13.60;99.90;;;;;;5020396;28;20040;-75
2023/08/30 02:57:14;;;;;;;7.75;3.95;;;13.60;99.90;;;;;;5034164;28;20045;-74
2023/08/30 03:00:00;;;;;;;6.65;4.22;;;13.70;99.90;;;;;;5015134;28;20049;-74
2023/08/30 03:02:46;;;;;;;4.70;3.75;;;13.70;99.90;;;;;;5032168;28;20041;-74
2023/08/30 03:05:32;;;;;;;4.95;3.67;;;13.70;99.90;;;;;;5051765;28;20090;-73
2023/08/30 03:08:18;;;;;;;5.38;3.95;;;13.70;99.90;;;;;;5043528;28;20038;-73
2023/08/30 03:11:08;;;;;;;5.13;3.65;;;13.60;99.90;;;;;;5018084;28;20104;-73
2023/08/30 03:13:54;;;;;;;7.13;3.80;;;13.60;99.90;;;;;;5029032;28;20041;-74
2023/08/30 03:16:40;;;;;;;5.30;3.55;;;13.60;99.90;;;;;;5031306;28;20041;-74
2023/08/30 03:19:27;;;;;;;6.20;4.15;;;13.60;99.90;;;;;;5033049;28;20455;-73
2023/08/30 03:22:13;;;;;;;4.97;3.70;;;13.60;99.90;;;;;;5023960;28;20041;-73
2023/08/30 03:25:02;;;;;;;5.88;3.60;;;13.60;99.90;;;;;;5032062;28;20042;-74
2023/08/30 03:27:48;;;;;;;5.55;4.32;;;13.60;99.90;;;;;;5006149;28;20033;-75
2023/08/30 03:30:34;;;;;;;8.00;4.22;;;13.60;99.90;;;;;;5043535;28;20124;-73
2023/08/30 03:33:20;;;;;;;6.40;3.60;;;13.60;99.90;;;;;;5046306;28;20079;-74
2023/08/30 03:36:07;;;;;;;4.55;3.50;;;13.60;99.90;;;;;;5030006;28;20141;-74
2023/08/30 03:38:52;;;;;;;7.15;4.30;;;13.60;99.90;;;;;;5018238;28;20037;-74
2023/08/30 03:41:38;;;;;;;4.95;3.70;;;13.60;99.90;;;;;;5023488;28;20049;-74
2023/08/30 03:44:25;;;;;;;5.45;3.53;;;13.60;99.90;;;;;;5026192;28;20757;-74
2023/08/30 03:47:11;;;;;;;4.95;3.80;;;13.60;99.90;;;;;;5039342;28;20072;-73
2023/08/30 03:49:58;;;;;;;5.95;4.30;;;13.50;99.90;;;;;;5021828;28;20033;-74
2023/08/30 03:52:44;;;;;;;5.32;4.20;;;13.50;99.90;;;;;;5038430;28;20509;-74
2023/08/30 03:55:30;;;;;;;6.18;3.95;;;13.50;99.90;;;;;;5012606;28;20044;-74
2023/08/30 03:58:17;;;;;;;5.63;3.80;;;13.50;99.90;;;;;;5041372;28;20041;-74
2023/08/30 04:01:03;;;;;;;5.70;3.78;;;13.40;99.90;;;;;;5011548;28;20049;-74
2023/08/30 04:03:49;;;;;;;5.47;3.85;;;13.40;99.90;;;;;;5026818;28;20037;-74
2023/08/30 04:06:35;;;;;;;8.00;4.25;;;13.40;99.90;;;;;;5029113;28;20044;-74
2023/08/30 04:09:21;;;;;;;9.80;4.60;;;13.30;99.90;;;;;;5017890;28;20041;-72
2023/08/30 04:12:07;;;;;;;8.05;4.25;;;13.30;99.90;;;;;;5022190;28;20041;-72
2023/08/30 04:14:53;;;;;;;7.18;4.00;;;13.30;99.90;;;;;;5049702;28;20056;-71
2023/08/30 04:17:39;;;;;;;8.25;4.15;;;13.30;99.90;;;;;;5016060;28;20643;-72
2023/08/30 04:20:25;;;;;;;8.07;3.95;;;13.20;99.90;;;;;;5017185;28;20053;-74
2023/08/30 04:23:11;;;;;;;5.15;3.50;;;13.20;99.90;;;;;;5002525;28;20045;-74
2023/08/30 04:25:57;;;;;;;7.97;3.72;;;13.30;99.90;;;;;;5004801;28;20470;-74
2023/08/30 04:28:43;;;;;;;6.55;4.32;;;13.30;99.90;;;;;;5030825;28;20514;-75
2023/08/30 04:31:29;;;;;;;6.13;4.10;;;13.30;99.90;;;;;;5041134;28;20364;-74
2023/08/30 04:34:16;;;;;;;7.60;4.28;;;13.30;99.90;;;;;;5050542;28;20780;-74
2023/08/30 04:37:03;;;;;;;5.53;4.40;;;13.30;99.90;;;;;;5036601;28;20579;-75
2023/08/30 04:39:49;;;;;;;7.28;4.22;;;13.30;99.90;;;;;;5031596;28;20041;-74
2023/08/30 04:42:35;;;;;;;5.88;4.18;;;13.30;99.90;;;;;;5033684;28;20045;-74
2023/08/30 04:45:21;;;;;;;7.47;4.60;;;13.30;99.90;;;;;;5005552;28;20037;-74
2023/08/30 04:48:08;;;;;;;6.22;4.65;;;13.30;99.90;;;;;;5035093;28;20061;-74
2023/08/30 04:51:04;;;;;;;6.80;4.78;;;13.30;99.90;;;;;;5020537;28;20544;-74
2023/08/30 04:53:50;;;;;;;7.53;4.85;;;13.30;99.90;;;;;;5015898;28;20045;-74
2023/08/30 04:56:36;;;;;;;7.20;4.78;;;13.30;99.90;;;;;;5036670;28;20056;-75
2023/08/30 04:59:22;;;;;;;7.15;5.00;;;13.30;99.90;;;;;;5052508;28;20041;-74
2023/08/30 05:02:08;;;;;;;6.95;5.03;;;13.20;99.90;;;;;;5036299;28;20493;-74
2023/08/30 05:04:55;;;;;;;9.10;5.57;;;13.20;99.90;;;;;;5046094;28;20033;-74
2023/08/30 05:07:41;;;;;;;6.32;4.70;;;13.20;99.90;;;;;;5045502;28;20037;-74
2023/08/30 05:10:27;;;;;;;6.50;4.82;;;13.10;99.90;;;;;;5036979;28;20064;-75
2023/08/30 05:13:15;;;;;;;6.82;4.55;;;13.20;99.90;;;;;;5042683;28;20131;-74
2023/08/30 05:16:01;;;;;;;7.22;4.90;;;13.10;99.90;;;;;;5035823;28;20041;-76
2023/08/30 05:18:50;;;;;;;11.30;5.28;;;13.10;99.90;;;;;;5019186;28;20122;-74
2023/08/30 05:21:36;;;;;;;10.90;5.57;;;13.10;99.90;;;;;;5047332;28;20048;-74
2023/08/30 05:24:22;;;;;;;8.82;5.28;;;13.10;99.90;;;;;;5019915;28;20037;-74
2023/08/30 05:27:08;;;;;;;8.82;4.93;;;13.10;99.90;;;;;;5024050;28;20042;-75
2023/08/30 05:29:55;;;;;;;7.63;5.53;;;13.10;99.90;;;;;;5048602;28;20049;-74
2023/08/30 05:32:41;;;;;;;7.35;5.45;;;13.10;99.90;;;;;;5019458;28;20106;-74
2023/08/30 05:35:27;;;;;;;9.20;6.10;;;13.10;99.90;;;;;;5032341;28;20045;-75
2023/08/30 05:38:13;;;;;;;11.80;5.07;;;13.10;99.90;;;;;;5018897;28;20034;-74
2023/08/30 05:40:59;;;;;;;9.15;4.97;;;13.10;99.90;;;;;;5019154;28;20139;-74
2023/08/30 05:43:45;;;;;;;8.10;5.22;;;13.10;99.90;;;;;;5025647;28;20221;-74
2023/08/30 05:46:31;;;;;;;9.10;5.20;;;13.10;99.90;;;;;;5038676;28;20044;-74
2023/08/30 05:49:17;;;;;;;11.25;5.80;;;13.10;99.90;;;;;;5022294;28;20075;-75
2023/08/30 05:52:03;;;;;;;10.55;6.18;;;13.10;99.90;;;;;;5006832;28;20351;-74
2023/08/30 05:54:50;;;;;;;11.77;5.45;;;13.20;99.90;;;;;;5031833;28;20042;-74
2023/08/30 05:57:35;;;;;;;9.10;4.97;;;13.20;99.90;;;;;;5022635;28;20156;-74
2023/08/30 06:00:22;;;;;;;12.05;4.93;;;13.20;99.90;;;;;;5036566;28;20048;-74
2023/08/30 06:03:08;;;;;;;10.50;5.00;;;13.30;99.90;;;;;;5035629;28;20052;-74
2023/08/30 06:05:55;;;;;;;14.93;5.22;;;13.40;99.90;;;;;;5036838;28;20037;-75
2023/08/30 06:08:41;;;;;;;8.82;5.38;;;13.50;99.90;;;;;;5023615;28;20047;-74
2023/08/30 06:11:27;;;;;;;10.35;5.50;;;13.60;99.90;;;;;;5037419;28;20038;-74
2023/08/30 06:14:13;;;;;;;9.52;5.25;;;13.70;99.90;;;;;;5041686;28;20033;-74
2023/08/30 06:16:59;;;;;;;11.73;5.68;;;13.70;99.90;;;;;;5034828;28;20041;-74
2023/08/30 06:19:45;;;;;;;9.38;5.30;;;13.80;99.90;;;;;;5051705;28;20481;-74
2023/08/30 06:22:31;;;;;;;8.40;4.78;;;13.90;99.90;;;;;;5021849;28;20045;-74
2023/08/30 06:25:17;;;;;;;9.57;5.22;;;14.00;99.90;;;;;;5043435;28;20147;-74
2023/08/30 06:28:04;;;;;;;12.68;5.80;;;14.10;99.90;;;;;;5040981;28;20037;-74
2023/08/30 06:30:50;;;;;;;10.50;4.28;;;14.20;99.90;;;;;;5050023;28;20041;-74
2023/08/30 06:33:36;;;;;;;12.73;5.53;;;14.20;99.90;;;;;;5033827;28;20505;-74
2023/08/30 06:36:23;;;;;;;8.93;4.97;;;14.30;99.90;;;;;;5013424;28;20045;-73
2023/08/30 06:39:09;;;;;;;10.45;5.00;;;14.30;99.90;;;;;;5025292;28;20140;-74
2023/08/30 06:41:55;;;;;;;8.60;5.03;;;14.40;99.90;;;;;;5031275;28;20055;-74
2023/08/30 06:44:41;;;;;;;8.43;4.80;;;14.40;99.90;;;;;;5021979;28;20465;-74
2023/08/30 06:47:27;;;;;;;10.15;4.55;;;14.60;99.90;;;;;;5034574;28;20046;-74
2023/08/30 06:50:13;;;;;;;6.63;4.45;;;14.60;99.90;;;;;;5031452;28;20037;-74
2023/08/30 06:52:58;;;;;;;6.35;4.07;;;14.70;99.90;;;;;;5018893;28;20555;-74
2023/08/30 06:55:44;;;;;;;9.15;4.55;;;14.70;99.90;;;;;;5023199;28;20076;-74
2023/08/30 06:58:30;;;;;;;9.05;4.63;;;14.80;99.90;;;;;;5047849;28;20416;-74
2023/08/30 07:01:16;;;;;;;10.63;4.35;;;14.80;99.90;;;;;;5047855;28;20110;-74
2023/08/30 07:04:02;;;;;;;9.15;4.50;;;14.90;99.90;;;;;;5048101;28;20036;-75
2023/08/30 07:06:49;;;;;;;7.55;4.68;;;15.00;99.90;;;;;;5036794;28;20110;-75
2023/08/30 07:09:35;;;;;;;5.93;4.53;;;15.00;99.90;;;;;;5019565;28;20076;-75
2023/08/30 07:12:21;;;;;;;7.35;4.18;;;15.00;99.90;;;;;;5007406;28;20107;-75
2023/08/30 07:15:07;;;;;;;8.63;4.10;;;15.10;99.90;;;;;;5044006;28;20095;-74
2023/08/30 07:17:53;;;;;;;9.32;4.35;;;15.10;99.90;;;;;;5034890;28;20552;-74
2023/08/30 07:20:39;;;;;;;7.75;4.72;;;15.20;99.90;;;;;;5045616;28;20049;-74
2023/08/30 07:23:25;;;;;;;10.55;5.28;;;15.20;99.90;;;;;;5032304;28;20106;-74
2023/08/30 07:26:11;;;;;;;9.07;6.47;;;15.30;99.90;;;;;;5040574;28;20068;-74
2023/08/30 07:28:57;;;;;;;9.00;4.82;;;15.40;99.90;;;;;;5040742;28;20034;-74
2023/08/30 07:31:43;;;;;;;7.55;4.40;;;15.40;99.90;;;;;;5039615;28;20144;-74
2023/08/30 07:34:29;;;;;;;10.00;4.40;;;15.40;99.90;;;;;;5026789;28;20056;-75
2023/08/30 07:37:21;;;;;;;9.02;4.78;;;15.50;99.90;;;;;;5039304;28;20048;-74
2023/08/30 07:40:08;;;;;;;9.63;4.10;;;15.60;99.90;;;;;;5036447;28;20075;-74
2023/08/30 07:42:54;;;;;;;7.93;4.15;;;15.70;99.90;;;;;;5036987;28;20096;-74
2023/08/30 07:45:40;;;;;;;5.65;3.58;;;15.70;99.90;;;;;;5032668;28;20049;-75
2023/08/30 07:48:26;;;;;;;7.72;4.13;;;15.80;99.90;;;;;;5016363;28;20042;-74
2023/08/30 07:51:12;;;;;;;7.53;3.47;;;15.90;99.90;;;;;;5030833;28;20095;-74
2023/08/30 07:53:58;;;;;;;8.02;3.70;;;15.90;99.90;;;;;;5032196;28;20046;-74
2023/08/30 07:56:44;;;;;;;8.13;3.95;;;16.00;99.90;;;;;;5036773;28;20429;-74
2023/08/30 07:59:32;;;;;;;9.90;4.38;;;16.00;99.90;;;;;;5016112;28;20049;-74
2023/08/30 08:02:18;;;;;;;6.10;3.28;;;16.10;99.90;;;;;;5038160;28;20045;-74
2023/08/30 08:05:04;;;;;;;8.60;3.90;;;16.10;99.90;;;;;;5043054;28;20061;-74
2023/08/30 08:07:51;;;;;;;12.07;3.78;;;16.20;99.90;;;;;;5029314;28;20037;-74
2023/08/30 08:10:37;;;;;;;7.32;3.80;;;16.30;99.90;;;;;;5030604;28;20041;-74
2023/08/30 08:13:23;;;;;;;11.75;3.80;;;16.30;99.90;;;;;;5021273;28;20048;-74
2023/08/30 08:16:09;;;;;;;6.60;3.35;;;16.30;99.90;;;;;;5038399;28;20042;-73
2023/08/30 08:18:58;;;;;;;7.78;3.08;;;16.40;99.90;;;;;;5030041;28;20045;-74
2023/08/30 08:21:44;;;;;;;4.15;3.10;;;16.50;99.90;;;;;;5029487;28;20107;-74
2023/08/30 08:24:30;;;;;;;6.53;2.90;;;16.60;99.90;;;;;;5033023;28;20124;-74
2023/08/30 08:27:16;;;;;;;9.07;3.03;;;16.70;99.90;;;;;;5019696;28;20136;-74
2023/08/30 08:30:03;;;;;;;8.55;3.10;;;16.60;99.90;;;;;;5041280;28;20097;-72
2023/08/30 08:32:49;;;;;;;4.63;3.05;;;16.70;99.90;;;;;;5041052;28;20041;-71
2023/08/30 08:35:35;;;;;;;4.97;2.40;;;16.70;99.90;;;;;;5029407;28;20037;-71
2023/08/30 08:38:21;;;;;;;4.50;2.63;;;16.70;99.90;;;;;;5033392;28;20108;-72
2023/08/30 08:41:08;;;;;;;8.45;2.55;;;16.80;99.90;;;;;;5027474;28;20743;-73
2023/08/30 08:43:54;;;;;;;5.40;2.50;;;16.80;99.90;;;;;;5031816;28;20116;-73
2023/08/30 08:46:40;;;;;;;3.72;2.72;;;17.00;99.90;;;;;;5023296;28;20048;-73
2023/08/30 08:49:29;;;;;;;7.95;2.92;;;17.00;99.90;;;;;;5019300;28;20037;-73
2023/08/30 08:52:14;;;;;;;;;;;17.10;99.90;;;;;;5036477;28;20041;-74
2023/08/30 08:55:00;;;;;;;5.38;2.55;;;17.20;99.90;;;;;;5038822;28;19920;-72
2023/08/30 08:57:46;;;;;;;6.80;2.70;;;17.20;99.90;;;;;;5025373;28;20048;-71
2023/08/30 09:00:32;;;;;;;6.40;2.90;;;17.30;99.90;;;;;;5035338;28;20041;-72
2023/08/30 09:03:18;;;;;;;3.83;2.60;;;17.30;99.90;;;;;;5015290;28;20045;-74
2023/08/30 09:06:04;;;;;;;5.07;2.53;;;17.40;99.90;;;;;;5018912;28;20099;-72
2023/08/30 09:08:50;;;;;;;3.97;2.20;;;17.60;99.90;;;;;;5005826;28;20537;-71
2023/08/30 09:11:37;;;;;;;4.82;2.33;;;17.60;99.90;;;;;;5027985;28;20045;-71
2023/08/30 09:14:23;;;;;;;4.55;2.13;;;17.70;99.90;;;;;;5022430;28;20045;-71
2023/08/30 09:17:09;;;;;;;5.75;2.30;;;17.80;99.90;;;;;;5039424;28;20049;-71
2023/08/30 09:20:06;;;;;;;5.43;2.20;;;17.90;99.90;;;;;;5036395;28;20045;-71
2023/08/30 09:22:51;;;;;;;6.15;2.30;;;17.90;99.90;;;;;;5014430;28;20128;-71
2023/08/30 09:25:37;;;;;;;4.30;2.22;;;18.00;99.90;;;;;;5046482;28;20185;-72
2023/08/30 09:28:23;;;;;;;3.13;2.10;;;18.10;99.90;;;;;;5048178;28;20044;-72
2023/08/30 09:31:19;;;;;;;6.45;1.95;;;18.10;99.90;;;;;;5020195;28;20106;-71
2023/08/30 09:34:05;;;;;;;7.32;1.95;;;18.20;99.90;;;;;;5036791;28;20366;-71
2023/08/30 09:36:51;;;;;;;5.55;2.40;;;18.30;99.90;;;;;;5016200;28;20053;-72
2023/08/30 09:39:37;;;;;;;6.65;3.00;;;18.50;99.90;;;;;;5042432;28;20045;-72
2023/08/30 09:42:23;;;;;;;4.90;2.30;;;18.50;99.90;;;;;;5043605;28;20417;-72
2023/08/30 09:45:22;;;;;;;4.70;2.50;;;18.60;99.90;;;;;;5045686;28;20068;-71
2023/08/30 09:48:08;;;;;;;6.30;2.40;;;18.60;99.90;;;;;;5018920;28;20046;-71
2023/08/30 09:50:54;;;;;;;6.60;2.28;;;18.70;99.90;;;;;;5018359;28;20133;-72
2023/08/30 09:53:43;;;;;;;4.90;1.85;;;18.80;99.90;;;;;;5022867;28;20060;-72
2023/08/30 09:56:29;;;;;;;4.20;2.33;;;18.90;99.90;;;;;;5031449;28;20046;-71
2023/08/30 09:59:15;;;;;;;6.32;2.20;;;19.00;99.90;;;;;;5031789;28;20045;-71
2023/08/30 10:02:01;;;;;;;9.05;2.95;;;19.20;99.90;;;;;;5041044;28;20429;-71
2023/08/30 10:04:47;;;;;;;6.03;2.60;;;19.20;99.90;;;;;;5044299;28;20087;-72
2023/08/30 10:07:34;;;;;;;5.60;3.15;;;19.20;99.90;;;;;;5031310;28;20465;-71
2023/08/30 10:10:20;;;;;;;6.25;3.33;;;19.20;99.90;;;;;;5026300;28;20390;-71
2023/08/30 10:13:06;;;;;;;10.43;4.60;;;19.30;99.90;;;;;;5020903;28;20075;-71
2023/08/30 10:15:56;;;;;;;6.22;3.58;;;19.20;99.90;;;;;;5032940;28;20804;-71
2023/08/30 10:18:42;;;;;;;9.23;3.50;;;19.10;99.90;;;;;;5017520;28;20425;-72
2023/08/30 10:21:28;;;;;;;7.03;3.45;;;19.10;99.90;;;;;;5035218;28;20059;-71
2023/08/30 10:24:16;;;;;;;6.15;3.58;;;19.10;99.90;;;;;;5044275;28;20038;-72
2023/08/30 10:27:03;;;;;;;5.75;2.97;;;19.10;99.90;;;;;;5013320;28;20152;-71
2023/08/30 10:29:49;;;;;;;4.90;2.50;;;19.10;99.90;;;;;;5025393;28;20083;-71
2023/08/30 10:32:42;;;;;;;5.70;2.42;;;19.20;99.90;;;;;;5041327;28;20041;-71
2023/08/30 10:35:28;;;;;;;5.22;2.20;;;19.30;99.90;;;;;;5038517;28;20056;-71
2023/08/30 10:38:23;;;;;;;4.60;2.30;;;19.30;99.90;;;;;;5040177;28;20120;-71
2023/08/30 10:41:09;;;;;;;5.38;2.10;;;19.20;99.70;;;;;;5019033;28;20068;-72
2023/08/30 10:43:55;;;;;;;5.45;2.00;;;19.20;99.80;;;;;;5025173;28;20045;-71
2023/08/30 10:46:42;;;;;;;4.43;1.77;;;19.30;99.60;;;;;;5021510;28;20114;-72
2023/08/30 10:49:28;;;;;;;3.58;2.10;;;19.30;99.50;;;;;;5024593;28;20115;-71
2023/08/30 10:52:14;;;;;;;3.42;2.42;;;19.50;99.90;;;;;;5026695;28;21930;-71
2023/08/30 10:55:11;;;;;;;6.05;2.65;;;19.70;99.90;;;;;;5023440;28;20053;-71
2023/08/30 10:58:01;;;;;;;4.75;2.70;;;19.80;99.60;;;;;;5037300;28;20041;-71
2023/08/30 11:00:47;;;;;;;3.70;2.83;;;19.90;99.30;;;;;;5026038;28;20056;-70
2023/08/30 11:03:33;;;;;;;4.88;3.35;;;19.90;99.60;;;;;;5039510;28;20032;-72
2023/08/30 11:06:19;;;;;;;6.55;3.00;;;20.00;98.40;;;;;;5031763;28;20037;-71
2023/08/30 11:09:05;;;;;;;4.38;3.15;;;20.00;98.50;;;;;;5029202;28;20071;-71
2023/08/30 11:11:51;;;;;;;5.75;3.20;;;20.10;98.70;;;;;;5020002;28;20466;-72
2023/08/30 11:14:58;;;;;;;5.57;3.08;;;20.20;98.40;;;;;;5032061;28;20052;-71
2023/08/30 11:17:44;;;;;;;5.63;2.83;;;20.20;98.30;;;;;;5020456;28;20053;-71
2023/08/30 11:20:30;;;;;;;4.90;2.85;;;20.00;97.30;;;;;;5029951;28;20041;-71
2023/08/30 11:23:17;;;;;;;6.40;3.28;;;19.90;97.90;;;;;;5041114;28;20144;-72
2023/08/30 11:26:03;;;;;;;7.50;2.80;;;19.90;97.60;;;;;;5020699;28;20036;-72
2023/08/30 11:28:52;;;;;;;6.75;3.67;;;20.00;98.00;;;;;;5012335;28;20098;-71
2023/08/30 11:31:38;;;;;;;8.82;3.10;;;20.20;97.00;;;;;;5035338;28;20045;-71
2023/08/30 11:34:26;;;;;;;5.82;2.75;;;20.10;96.10;;;;;;5037435;28;20045;-71
2023/08/30 11:37:12;;;;;;;4.00;2.70;;;20.30;97.00;;;;;;5020833;28;20458;-71
2023/08/30 11:39:59;;;;;;;5.45;3.22;;;20.30;96.90;;;;;;5007377;28;20079;-71
2023/08/30 11:42:45;;;;;;;6.50;3.80;;;20.30;96.90;;;;;;5035884;28;20045;-71
2023/08/30 11:45:34;;;;;;;9.05;3.53;;;20.30;96.80;;;;;;5033986;28;20037;-71
2023/08/30 11:48:20;;;;;;;7.97;3.28;;;20.10;96.50;;;;;;5020845;28;20041;-71
2023/08/30 11:51:07;;;;;;;8.45;3.70;;;20.20;96.80;;;;;;5020596;28;20045;-71
2023/08/30 11:53:54;;;;;;;4.57;3.10;;;20.20;96.10;;;;;;5030647;28;20542;-75
2023/08/30 11:56:40;;;;;;;7.20;3.75;;;20.10;96.20;;;;;;5016581;28;20103;-71
2023/08/30 11:59:26;;;;;;;7.78;4.80;;;20.00;96.10;;;;;;5029819;28;20049;-70
2023/08/30 12:02:13;;;;;;;8.85;5.97;;;20.00;96.70;;;;;;5008167;28;20041;-73
2023/08/30 12:05:00;;;;;;;6.32;4.65;;;20.00;96.70;;;;;;5028485;28;20084;-73
2023/08/30 12:07:46;;;;;;;7.63;5.00;;;19.90;97.40;;;;;;5032489;28;20106;-73
2023/08/30 12:10:32;;;;;;;7.65;5.65;;;19.90;97.30;;;;;;5020089;28;20482;-73
2023/08/30 12:13:29;;;;;;;8.27;5.10;;;19.90;97.30;;;;;;5039059;28;20040;-73
2023/08/30 12:16:17;;;;;;;9.02;6.00;;;19.90;97.40;;;;;;5034717;28;20381;-72
2023/08/30 12:19:10;;;;;;;7.18;4.95;;;19.70;97.30;;;;;;5024494;28;20057;-72
2023/08/30 12:21:56;;;;;;;9.07;5.05;;;19.70;97.50;;;;;;5042537;28;20041;-72
2023/08/30 12:24:45;;;;;;;7.97;4.70;;;19.70;97.60;;;;;;5044216;28;20047;-71
2023/08/30 12:27:31;;;;;;;7.80;4.70;;;19.70;97.30;;;;;;5049248;28;20029;-71
2023/08/30 12:30:17;;;;;;;6.30;4.28;;;19.60;97.40;;;;;;5031646;28;20064;-71
2023/08/30 12:33:04;;;;;;;5.35;4.20;;;19.60;97.80;;;;;;5040053;28;20094;-71
2023/08/30 12:35:49;;;;;;;6.78;4.68;;;19.70;97.70;;;;;;5032980;28;20044;-71
2023/08/30 12:38:35;;;;;;;7.53;4.30;;;19.60;97.70;;;;;;5030034;28;20045;-71
2023/08/30 12:41:23;;;;;;;7.00;4.57;;;19.60;97.80;;;;;;5031275;28;20831;-71
2023/08/30 12:44:09;;;;;;;7.30;4.70;;;19.50;97.80;;;;;;5048045;28;20041;-71
2023/08/30 12:46:54;;;;;;;6.20;4.35;;;19.50;97.80;;;;;;5019586;28;20049;-72
2023/08/30 12:49:40;;;;;;;6.18;3.67;;;19.50;98.40;;;;;;5044457;28;20043;-72
2023/08/30 12:52:26;;;;;;;7.85;3.95;;;19.50;98.70;;;;;;5036964;28;20044;-71
2023/08/30 12:55:12;;;;;;;6.90;3.67;;;19.50;98.50;;;;;;5042871;28;20152;-71
2023/08/30 12:57:58;;;;;;;6.18;3.60;;;19.50;98.50;;;;;;5034419;28;20520;-71
2023/08/30 13:00:44;;;;;;;6.47;4.18;;;19.60;98.90;;;;;;5033314;28;20060;-71
2023/08/30 13:03:30;;;;;;;5.75;3.92;;;19.70;98.30;;;;;;5040655;28;20083;-71
2023/08/30 13:06:16;;;;;;;6.28;3.55;;;19.70;98.40;;;;;;5036693;28;20104;-71
2023/08/30 13:09:03;;;;;;;6.57;3.85;;;19.80;98.40;;;;;;5028738;28;20389;-71
2023/08/30 13:11:49;;;;;;;4.78;3.47;;;19.70;98.10;;;;;;5005607;28;20046;-71
2023/08/30 13:14:35;;;;;;;5.32;3.17;;;19.80;98.30;;;;;;5021801;28;20200;-71
2023/08/30 13:17:21;;;;;;;4.28;3.05;;;19.90;98.40;;;;;;5030486;28;20792;-71
2023/08/30 13:20:08;;;;;;;5.68;3.60;;;20.00;98.60;;;;;;5019013;28;20199;-71
2023/08/30 13:22:54;;;;;;;6.32;3.67;;;20.00;97.90;;;;;;5023336;28;20045;-72
2023/08/30 13:25:40;;;;;;;7.13;3.85;;;20.10;98.00;;;;;;5019714;28;20037;-72
2023/08/30 13:28:26;;;;;;;6.70;3.53;;;20.10;98.10;;;;;;5032989;28;20174;-71
2023/08/30 13:31:12;;;;;;;6.72;3.30;;;20.30;97.50;;;;;;5024336;28;20045;-71
2023/08/30 13:33:59;;;;;;;4.03;2.90;;;20.40;97.80;;;;;;5023718;28;20121;-71
2023/08/30 13:36:45;;;;;;;3.75;2.58;;;20.40;97.30;;;;;;5040495;28;20188;-72
2023/08/30 13:39:31;;;;;;;8.75;3.17;;;20.60;97.20;;;;;;5031731;28;20045;-73
2023/08/30 13:42:16;;;;;;;4.45;2.90;;;20.70;97.20;;;;;;5029753;28;20140;-71
2023/08/30 13:45:03;;;;;;;5.38;2.92;;;20.70;96.60;;;;;;5046226;28;20041;-72
2023/08/30 13:47:51;;;;;;;5.43;3.03;;;20.70;96.40;;;;;;5039157;28;20029;-72
2023/08/30 13:50:41;;;;;;;4.40;2.70;;;20.90;96.40;;;;;;5040199;28;20377;-72
2023/08/30 13:53:28;;;;;;;4.07;2.85;;;21.00;96.50;;;;;;5035274;28;20102;-72
2023/08/30 13:56:13;;;;;;;5.60;2.78;;;21.10;96.40;;;;;;5041859;28;20348;-72
2023/08/30 13:59:00;;;;;;;4.18;2.50;;;21.10;96.30;;;;;;5033737;28;20037;-72
2023/08/30 14:01:45;;;;;;;6.10;2.67;;;21.10;96.50;;;;;;5031610;28;20277;-72
2023/08/30 14:04:32;;;;;;;6.78;2.80;;;21.00;96.40;;;;;;5045491;28;20037;-72
2023/08/30 14:07:18;;;;;;;5.53;2.83;;;20.80;96.50;;;;;;5029999;28;20405;-72
2023/08/30 14:10:05;;;;;;;5.07;3.00;;;20.80;96.40;;;;;;5027150;28;20041;-72
2023/08/30 14:12:51;;;;;;;5.75;3.15;;;20.70;96.60;;;;;;5061243;28;20853;-71
2023/08/30 14:15:37;;;;;;;6.95;2.70;;;20.60;96.60;;;;;;5035645;28;20042;-73
2023/08/30 14:18:23;;;;;;;6.15;2.90;;;20.60;97.20;;;;;;5042179;28;20060;-72
2023/08/30 14:21:09;;;;;;;5.32;2.97;;;20.90;97.20;;;;;;5006348;28;20048;-72
2023/08/30 14:23:55;;;;;;;5.47;3.05;;;21.30;96.30;;;;;;5037089;28;20048;-72
2023/08/30 14:26:42;;;;;;;5.72;2.78;;;21.50;94.50;;;;;;5016977;28;20037;-71